createdAt,value
2023-12-05T00:02:15.138Z,21.13
2023-12-05T00:04:44.029Z,17.55
2023-12-05T00:07:20.715Z,17.90
2023-12-05T00:09:48.188Z,18.38
2023-12-05T00:12:18.172Z,17.50
2023-12-05T00:14:45.447Z,16.23
2023-12-05T00:17:17.580Z,19.60
2023-12-05T00:19:44.818Z,18.40
2023-12-05T00:22:17.457Z,16.67
2023-12-05T00:24:45.073Z,19.20
2023-12-05T00:27:17.314Z,17.75
2023-12-05T00:29:48.947Z,16.13
2023-12-05T00:32:18.674Z,16.50
2023-12-05T00:34:47.109Z,16.70
2023-12-05T00:37:17.310Z,18.73
2023-12-05T00:39:45.107Z,21.58
2023-12-05T00:42:14.757Z,21.15
2023-12-05T00:44:43.014Z,17.42
2023-12-05T00:47:10.409Z,22.20
2023-12-05T00:49:38.398Z,24.05
2023-12-05T00:52:08.691Z,21.65
2023-12-05T00:54:35.957Z,20.30
2023-12-05T00:57:03.396Z,21.83
2023-12-05T00:59:33.558Z,17.58
2023-12-05T01:02:03.998Z,21.15
2023-12-05T01:04:31.752Z,17.60
2023-12-05T01:07:00.301Z,19.60
2023-12-05T01:09:27.497Z,20.27
2023-12-05T01:11:54.652Z,20.70
2023-12-05T01:14:21.995Z,20.73
2023-12-05T01:16:49.116Z,21.65
2023-12-05T01:19:16.356Z,22.95
2023-12-05T01:21:43.826Z,20.60
2023-12-05T01:24:10.984Z,22.27
2023-12-05T01:26:38.145Z,18.70
2023-12-05T01:29:06.369Z,19.63
2023-12-05T01:31:33.906Z,22.88
2023-12-05T01:34:01.362Z,18.58
2023-12-05T01:36:32.265Z,18.75
2023-12-05T01:38:59.384Z,24.70
2023-12-05T01:41:27.213Z,20.27
2023-12-05T01:43:54.341Z,21.77
2023-12-05T01:46:21.829Z,20.35
2023-12-05T01:48:49.487Z,21.17
2023-12-05T01:51:17.752Z,21.98
2023-12-05T01:53:45.302Z,20.35
2023-12-05T01:56:13.959Z,22.48
2023-12-05T01:58:41.413Z,21.30
2023-12-05T02:01:11.285Z,21.27
2023-12-05T02:03:40.272Z,22.15
2023-12-05T02:06:08.506Z,18.75
2023-12-05T02:08:37.361Z,18.23
2023-12-05T02:11:04.765Z,17.88
2023-12-05T02:13:32.096Z,15.07
2023-12-05T02:16:22.917Z,18.33
2023-12-05T02:19:04.486Z,19.33
2023-12-05T02:21:39.335Z,21.63
2023-12-05T02:24:23.753Z,24.77
2023-12-05T02:27:22.477Z,25.95
2023-12-05T02:29:53.384Z,20.10
2023-12-05T02:32:20.582Z,20.50
2023-12-05T02:34:48.288Z,18.42
2023-12-05T02:38:06.533Z,19.00
2023-12-05T02:40:38.936Z,18.33
2023-12-05T02:43:13.096Z,20.10
2023-12-05T02:45:41.766Z,20.63
2023-12-05T02:48:11.828Z,19.58
2023-12-05T02:50:39.378Z,18.27
2023-12-05T02:53:06.935Z,19.13
2023-12-05T02:55:37.183Z,20.08
2023-12-05T02:58:06.718Z,21.40
2023-12-05T03:00:34.046Z,18.90
2023-12-05T03:03:01.160Z,22.58
2023-12-05T03:05:28.811Z,19.30
2023-12-05T03:07:56.196Z,22.23
2023-12-05T03:10:23.641Z,20.83
2023-12-05T03:12:50.878Z,21.50
2023-12-05T03:15:18.115Z,20.10
2023-12-05T03:17:45.527Z,23.45
2023-12-05T03:20:12.952Z,19.83
2023-12-05T03:22:40.469Z,24.42
2023-12-05T03:25:07.939Z,20.30
2023-12-05T03:27:36.255Z,19.90
2023-12-05T03:30:04.427Z,22.25
2023-12-05T03:32:34.455Z,19.00
2023-12-05T03:35:01.981Z,21.80
2023-12-05T03:37:29.321Z,18.33
2023-12-05T03:39:56.551Z,20.38
2023-12-05T03:42:24.782Z,20.15
2023-12-05T03:44:51.905Z,19.10
2023-12-05T03:47:19.132Z,16.65
2023-12-05T03:49:46.556Z,19.85
2023-12-05T03:52:17.246Z,22.17
2023-12-05T03:54:44.723Z,20.63
2023-12-05T03:57:14.655Z,18.40
2023-12-05T03:59:43.378Z,22.23
2023-12-05T04:02:12.877Z,21.63
2023-12-05T04:04:43.161Z,17.20
2023-12-05T04:07:10.443Z,21.27
2023-12-05T04:09:37.815Z,21.10
2023-12-05T04:12:05.315Z,20.05
2023-12-05T04:14:32.792Z,21.08
2023-12-05T04:17:00.144Z,20.17
2023-12-05T04:19:28.436Z,19.90
2023-12-05T04:21:55.724Z,18.35
2023-12-05T04:24:23.178Z,20.33
2023-12-05T04:26:50.318Z,20.13
2023-12-05T04:29:17.511Z,17.17
2023-12-05T04:31:44.860Z,20.70
2023-12-05T04:34:12.340Z,19.35
2023-12-05T04:36:40.141Z,19.58
2023-12-05T04:39:08.636Z,18.25
2023-12-05T04:41:36.967Z,21.75
2023-12-05T04:44:05.282Z,20.65
2023-12-05T04:46:32.822Z,20.50
2023-12-05T04:49:00.022Z,24.85
2023-12-05T04:51:28.014Z,22.50
2023-12-05T04:53:55.489Z,20.88
2023-12-05T04:56:23.335Z,25.63
2023-12-05T04:58:50.442Z,24.70
2023-12-05T05:01:20.922Z,22.85
2023-12-05T05:03:48.439Z,24.42
2023-12-05T05:06:16.051Z,22.65
2023-12-05T05:08:43.856Z,22.90
2023-12-05T05:11:11.135Z,23.42
2023-12-05T05:13:45.896Z,25.55
2023-12-05T05:16:17.360Z,22.17
2023-12-05T05:18:44.605Z,22.20
2023-12-05T05:21:14.287Z,22.95
2023-12-05T05:23:41.469Z,24.10
2023-12-05T05:26:09.424Z,21.52
2023-12-05T05:28:39.344Z,24.85
2023-12-05T05:31:07.052Z,24.35
2023-12-05T05:33:34.610Z,23.40
2023-12-05T05:36:01.979Z,22.88
2023-12-05T05:38:32.264Z,23.38
2023-12-05T05:41:07.939Z,22.63
2023-12-05T05:43:35.940Z,21.95
2023-12-05T05:46:03.460Z,21.27
2023-12-05T05:48:33.603Z,23.80
2023-12-05T05:51:01.772Z,20.35
2023-12-05T05:53:31.381Z,23.83
2023-12-05T05:56:01.883Z,20.00
2023-12-05T05:58:31.783Z,25.55
2023-12-05T06:00:59.144Z,27.27
2023-12-05T06:03:29.441Z,32.15
2023-12-05T06:06:00.111Z,31.88
2023-12-05T06:08:27.377Z,26.80
2023-12-05T06:10:54.647Z,24.20
2023-12-05T06:13:22.020Z,24.38
2023-12-05T06:15:49.194Z,24.83
2023-12-05T06:18:18.946Z,25.95
2023-12-05T06:20:47.476Z,25.15
2023-12-05T06:23:15.348Z,24.90
2023-12-05T06:25:42.656Z,26.30
2023-12-05T06:28:12.111Z,26.15
2023-12-05T06:30:39.472Z,21.83
2023-12-05T06:33:06.742Z,21.95
2023-12-05T06:35:36.721Z,26.13
2023-12-05T06:38:03.844Z,28.63
2023-12-05T06:40:31.286Z,30.98
2023-12-05T06:42:58.835Z,30.05
2023-12-05T06:45:26.129Z,25.08
2023-12-05T06:47:53.325Z,25.10
2023-12-05T06:50:20.497Z,20.33
2023-12-05T06:52:47.606Z,21.95
2023-12-05T06:55:15.223Z,19.15
2023-12-05T06:57:42.434Z,24.98
2023-12-05T07:00:10.193Z,26.48
2023-12-05T07:02:37.547Z,26.27
2023-12-05T07:05:06.004Z,22.83
2023-12-05T07:07:33.819Z,23.55
2023-12-05T07:10:01.248Z,22.42
2023-12-05T07:12:31.524Z,23.48
2023-12-05T07:14:59.061Z,25.77
2023-12-05T07:17:26.331Z,25.27
2023-12-05T07:19:53.589Z,19.85
2023-12-05T07:22:20.829Z,19.30
2023-12-05T07:24:48.049Z,26.13
2023-12-05T07:27:17.568Z,29.92
2023-12-05T07:29:44.902Z,31.92
2023-12-05T07:32:17.267Z,24.55
2023-12-05T07:34:44.510Z,24.10
2023-12-05T07:37:17.623Z,22.98
2023-12-05T07:39:44.933Z,22.23
2023-12-05T07:42:17.366Z,38.40
2023-12-05T07:44:44.490Z,21.80
2023-12-05T07:47:17.572Z,28.30
2023-12-05T07:49:48.616Z,23.70
2023-12-05T07:52:17.573Z,24.77
2023-12-05T07:54:44.742Z,25.02
2023-12-05T07:57:23.228Z,27.65
2023-12-05T07:59:53.375Z,23.88
2023-12-05T08:02:22.434Z,23.42
2023-12-05T08:04:49.772Z,25.70
2023-12-05T08:07:18.349Z,26.52
2023-12-05T08:09:45.787Z,27.60
2023-12-05T08:12:17.672Z,24.02
2023-12-05T08:14:44.876Z,21.58
2023-12-05T08:17:17.281Z,21.67
2023-12-05T08:19:44.432Z,23.15
2023-12-05T08:22:14.987Z,21.27
2023-12-05T08:24:43.202Z,20.40
2023-12-05T08:27:10.489Z,24.05
2023-12-05T08:29:43.801Z,18.35
2023-12-05T08:32:14.694Z,21.05
2023-12-05T08:34:44.805Z,19.90
2023-12-05T08:37:14.856Z,21.75
2023-12-05T08:39:43.121Z,18.27
2023-12-05T08:42:10.535Z,26.35
2023-12-05T08:44:43.776Z,26.70
2023-12-05T08:47:13.009Z,28.25
2023-12-05T08:49:43.923Z,24.58
2023-12-05T08:52:11.293Z,21.88
2023-12-05T08:54:43.486Z,23.48
2023-12-05T08:57:14.735Z,23.30
2023-12-05T08:59:45.584Z,22.75
2023-12-05T09:02:17.723Z,25.33
2023-12-05T09:04:45.377Z,27.23
2023-12-05T09:07:17.684Z,29.30
2023-12-05T09:09:45.003Z,23.65
2023-12-05T09:12:17.345Z,24.13
2023-12-05T09:14:44.857Z,28.77
2023-12-05T09:17:19.731Z,24.48
2023-12-05T09:19:47.086Z,29.48
2023-12-05T09:22:18.688Z,26.05
2023-12-05T09:27:17.350Z,25.05
2023-12-05T09:29:50.212Z,24.33
2023-12-05T09:32:19.654Z,24.35
2023-12-05T09:34:47.138Z,26.13
2023-12-05T09:37:17.412Z,29.85
2023-12-05T09:39:44.828Z,29.38
2023-12-05T09:42:17.758Z,25.38
2023-12-05T09:44:48.805Z,25.98
2023-12-05T09:47:21.662Z,23.85
2023-12-05T09:49:49.968Z,23.50
2023-12-05T09:52:17.706Z,26.10
2023-12-05T09:54:45.481Z,24.80
2023-12-05T09:57:17.613Z,25.27
2023-12-05T09:59:44.872Z,26.38
2023-12-05T10:02:17.762Z,22.63
2023-12-05T10:04:46.697Z,22.85
2023-12-05T10:07:17.190Z,25.65
2023-12-05T10:09:44.990Z,28.38
2023-12-05T10:12:18.157Z,25.75
2023-12-05T10:14:47.007Z,23.00
2023-12-05T10:17:17.242Z,25.63
2023-12-05T10:19:45.054Z,28.85
2023-12-05T10:22:17.600Z,19.02
2023-12-05T10:24:46.870Z,18.13
2023-12-05T10:27:16.935Z,16.48
2023-12-05T10:29:44.212Z,14.13
2023-12-05T10:32:17.572Z,13.48
2023-12-05T10:34:52.843Z,17.73
2023-12-05T10:37:24.739Z,13.75
2023-12-05T10:39:54.666Z,14.13
2023-12-05T10:42:29.191Z,13.18
2023-12-05T10:44:57.097Z,23.33
2023-12-05T10:47:28.934Z,22.88
2023-12-05T10:49:56.898Z,20.15
2023-12-05T10:52:25.769Z,20.27
2023-12-05T10:54:59.498Z,23.48
2023-12-05T10:57:35.753Z,22.23
2023-12-05T11:00:05.117Z,21.83
2023-12-05T11:02:32.576Z,22.88
2023-12-05T11:05:05.836Z,25.13
2023-12-05T11:07:33.390Z,23.67
2023-12-05T11:10:01.176Z,26.00
2023-12-05T11:12:29.660Z,27.55
2023-12-05T11:14:58.982Z,23.75
2023-12-05T11:18:21.661Z,22.27
2023-12-05T11:21:01.894Z,22.58
2023-12-05T11:23:47.247Z,27.80
2023-12-05T11:26:45.658Z,22.60
2023-12-05T11:29:49.046Z,27.27
2023-12-05T11:32:32.124Z,29.50
2023-12-05T11:35:05.681Z,27.23
2023-12-05T11:37:54.961Z,26.48
2023-12-05T11:40:22.718Z,28.13
2023-12-05T11:43:09.980Z,26.33
2023-12-05T11:45:39.403Z,27.00
2023-12-05T11:48:09.968Z,29.95
2023-12-05T11:50:46.321Z,28.33
2023-12-05T11:53:15.849Z,31.15
2023-12-05T11:55:45.027Z,25.58
2023-12-05T11:58:32.709Z,28.92
2023-12-05T12:01:10.608Z,26.35
2023-12-05T12:03:56.352Z,24.50
2023-12-05T12:06:26.285Z,30.98
2023-12-05T12:08:55.509Z,26.13
2023-12-05T12:11:23.595Z,27.23
2023-12-05T12:13:51.753Z,27.75
2023-12-05T12:16:20.929Z,26.00
2023-12-05T12:18:53.719Z,29.85
2023-12-05T12:21:32.721Z,26.30
2023-12-05T12:24:01.131Z,28.92
2023-12-05T12:26:33.649Z,32.42
2023-12-05T12:29:11.020Z,34.53
2023-12-05T12:31:39.099Z,31.75
2023-12-05T12:34:09.888Z,29.25
2023-12-05T12:36:38.898Z,30.80
2023-12-05T12:39:06.193Z,31.42
2023-12-05T12:41:33.356Z,27.17
2023-12-05T12:44:00.759Z,28.77
2023-12-05T12:46:27.857Z,31.00
2023-12-05T12:48:58.127Z,33.60
2023-12-05T12:51:25.325Z,29.67
2023-12-05T12:53:52.693Z,29.10
2023-12-05T12:56:19.875Z,32.40
2023-12-05T12:58:48.950Z,30.95
2023-12-05T13:01:16.294Z,26.75
2023-12-05T13:03:45.440Z,25.98
2023-12-05T13:06:13.821Z,28.05
2023-12-05T13:08:41.235Z,34.33
2023-12-05T13:11:09.212Z,25.52
2023-12-05T13:13:36.707Z,28.60
2023-12-05T13:16:06.563Z,29.80
2023-12-05T13:18:45.603Z,22.95
2023-12-05T13:21:14.083Z,28.10
2023-12-05T13:23:45.013Z,26.85
2023-12-05T13:26:13.228Z,29.27
2023-12-05T13:28:41.015Z,26.25
2023-12-05T13:31:09.398Z,28.70
2023-12-05T13:33:36.985Z,26.63
2023-12-05T13:36:04.911Z,27.27
2023-12-05T13:38:32.093Z,29.90
2023-12-05T13:41:02.871Z,24.55
2023-12-05T13:43:33.191Z,25.65
2023-12-05T13:46:02.806Z,27.08
2023-12-05T13:48:30.394Z,25.10
2023-12-05T13:51:04.100Z,33.00
2023-12-05T13:53:31.297Z,28.17
2023-12-05T13:56:03.914Z,29.08
2023-12-05T13:58:31.206Z,33.03
2023-12-05T14:01:03.265Z,33.35
2023-12-05T14:03:31.001Z,29.92
2023-12-05T14:06:03.828Z,33.70
2023-12-05T14:08:31.049Z,33.25
2023-12-05T14:11:02.754Z,31.88
2023-12-05T14:13:32.083Z,32.00
2023-12-05T14:16:04.350Z,26.00
2023-12-05T14:18:32.967Z,28.15
2023-12-05T14:21:02.848Z,47.80
2023-12-05T14:23:30.136Z,33.10
2023-12-05T14:25:59.881Z,31.27
2023-12-05T14:28:29.285Z,27.13
2023-12-05T14:31:02.560Z,26.88
2023-12-05T14:33:30.008Z,28.13
2023-12-05T14:36:00.313Z,27.92
2023-12-05T14:38:31.114Z,30.95
2023-12-05T14:41:02.991Z,29.77
2023-12-05T14:43:30.234Z,28.88
2023-12-05T14:46:02.688Z,27.10
2023-12-05T14:48:30.283Z,27.40
2023-12-05T14:51:00.474Z,31.10
2023-12-05T14:53:31.453Z,30.38
2023-12-05T14:56:02.790Z,32.15
2023-12-05T14:58:30.016Z,34.95
2023-12-05T15:01:03.555Z,33.17
2023-12-05T15:03:31.934Z,32.17
2023-12-05T15:06:02.396Z,31.23
2023-12-05T15:08:32.018Z,38.65
2023-12-05T15:11:02.555Z,34.95
2023-12-05T15:13:29.937Z,40.30
2023-12-05T15:16:03.223Z,34.85
2023-12-05T15:18:31.102Z,33.92
2023-12-05T15:21:02.742Z,30.30
2023-12-05T15:26:02.538Z,37.28
2023-12-05T15:28:30.293Z,34.63
2023-12-05T15:31:02.954Z,36.78
2023-12-05T15:33:30.479Z,42.83
2023-12-05T15:36:02.444Z,40.40
2023-12-05T15:38:30.567Z,45.88
2023-12-05T15:41:02.924Z,35.78
2023-12-05T15:43:30.113Z,36.92
2023-12-05T15:46:00.036Z,32.55
2023-12-05T15:48:43.634Z,34.08
2023-12-05T15:51:13.975Z,32.45
2023-12-05T15:53:42.797Z,38.60
2023-12-05T15:56:12.538Z,40.15
2023-12-05T15:58:40.508Z,34.60
2023-12-05T16:01:08.050Z,37.47
2023-12-05T16:03:35.873Z,35.03
2023-12-05T16:06:03.097Z,36.67
2023-12-05T16:08:30.288Z,36.83
2023-12-05T16:11:02.270Z,41.03
2023-12-05T16:13:29.728Z,35.78
2023-12-05T16:16:03.728Z,36.35
2023-12-05T16:18:31.246Z,38.13
2023-12-05T16:21:02.768Z,35.25
2023-12-05T16:26:02.339Z,37.47
2023-12-05T16:28:29.431Z,41.28
2023-12-05T16:30:58.347Z,43.08
2023-12-05T16:33:32.305Z,46.20
2023-12-05T16:36:03.267Z,45.55
2023-12-05T16:38:30.948Z,38.65
2023-12-05T16:41:04.051Z,40.03
2023-12-05T16:43:31.244Z,39.25
2023-12-05T16:46:02.838Z,51.55
2023-12-05T16:48:30.074Z,47.20
2023-12-05T16:51:00.356Z,49.40
2023-12-05T16:53:28.373Z,57.97
2023-12-05T16:55:56.028Z,48.75
2023-12-05T16:58:25.982Z,45.45
2023-12-05T17:00:53.334Z,44.92
2023-12-05T17:03:23.217Z,51.33
2023-12-05T17:05:50.830Z,50.25
2023-12-05T17:08:18.336Z,45.85
2023-12-05T17:10:45.989Z,53.90
2023-12-05T17:13:13.416Z,47.60
2023-12-05T17:15:42.659Z,47.00
2023-12-05T17:18:10.581Z,75.30
2023-12-05T17:20:38.432Z,70.80
2023-12-05T17:23:05.743Z,59.35
2023-12-05T17:25:33.177Z,63.13
2023-12-05T17:28:04.060Z,56.00
2023-12-05T17:30:34.677Z,54.05
2023-12-05T17:33:02.663Z,49.47
2023-12-05T17:35:30.320Z,57.03
2023-12-05T17:37:57.653Z,50.63
2023-12-05T17:40:24.789Z,45.45
2023-12-05T17:42:51.936Z,45.70
2023-12-05T17:45:20.349Z,46.20
2023-12-05T17:47:47.904Z,41.20
2023-12-05T17:50:15.357Z,50.53
2023-12-05T17:52:45.542Z,49.30
2023-12-05T17:55:14.011Z,39.50
2023-12-05T17:57:41.597Z,48.05
2023-12-05T18:00:09.757Z,44.63
2023-12-05T18:02:44.417Z,42.40
2023-12-05T18:05:11.676Z,45.13
2023-12-05T18:07:54.181Z,44.88
2023-12-05T18:10:25.742Z,40.10
2023-12-05T18:12:53.266Z,43.50
2023-12-05T18:15:20.801Z,44.80
2023-12-05T18:17:50.680Z,45.38
2023-12-05T18:20:18.095Z,42.05
2023-12-05T18:22:48.290Z,41.22
2023-12-05T18:25:16.007Z,45.80
2023-12-05T18:27:44.148Z,40.58
2023-12-05T18:30:11.731Z,48.25
2023-12-05T18:32:39.683Z,39.58
2023-12-05T18:35:07.287Z,41.20
2023-12-05T18:37:34.797Z,39.28
2023-12-05T18:40:03.785Z,46.63
2023-12-05T18:45:02.338Z,47.13
2023-12-05T18:47:29.524Z,48.40
2023-12-05T18:49:58.282Z,42.90
2023-12-05T18:52:25.989Z,43.55
2023-12-05T18:54:53.547Z,41.40
2023-12-05T18:57:21.530Z,25.05
2023-12-05T18:59:48.861Z,37.25
2023-12-05T19:02:16.279Z,38.83
2023-12-05T19:04:44.079Z,33.35
2023-12-05T19:07:14.095Z,28.17
2023-12-05T19:09:42.412Z,30.98
2023-12-05T19:12:09.622Z,37.90
2023-12-05T19:14:37.386Z,38.88
2023-12-05T19:17:06.905Z,23.13
2023-12-05T19:19:34.365Z,28.02
2023-12-05T19:22:03.877Z,22.60
2023-12-05T19:24:32.029Z,23.27
2023-12-05T19:27:00.833Z,20.02
2023-12-05T19:29:27.923Z,24.48
2023-12-05T19:31:55.369Z,23.58
2023-12-05T19:34:32.272Z,21.45
2023-12-05T19:37:07.506Z,19.48
2023-12-05T19:40:09.055Z,20.98
2023-12-05T19:42:39.137Z,22.58
2023-12-05T19:45:14.094Z,22.70
2023-12-05T19:47:59.280Z,23.33
2023-12-05T19:50:26.920Z,21.17
2023-12-05T19:52:54.294Z,21.00
2023-12-05T19:55:22.844Z,22.10
2023-12-05T19:57:50.141Z,20.95
2023-12-05T20:00:17.569Z,22.55
2023-12-05T20:02:44.658Z,20.65
2023-12-05T20:05:11.894Z,21.23
2023-12-05T20:07:39.483Z,22.35
2023-12-05T20:10:07.510Z,20.33
2023-12-05T20:12:34.966Z,23.35
2023-12-05T20:15:02.054Z,21.27
2023-12-05T20:17:29.729Z,22.13
2023-12-05T20:19:57.364Z,20.20
2023-12-05T20:22:29.643Z,21.17
2023-12-05T20:24:58.370Z,21.65
2023-12-05T20:27:25.939Z,19.95
2023-12-05T20:29:56.979Z,20.67
2023-12-05T20:32:24.923Z,23.45
2023-12-05T20:34:52.359Z,20.35
2023-12-05T20:37:19.670Z,58.03
2023-12-05T20:39:46.950Z,46.65
2023-12-05T20:42:14.077Z,26.75
2023-12-05T20:44:41.304Z,22.40
2023-12-05T20:47:08.812Z,22.60
2023-12-05T20:49:36.345Z,20.77
2023-12-05T20:52:04.621Z,21.23
2023-12-05T20:54:34.607Z,23.42
2023-12-05T20:57:04.892Z,21.63
2023-12-05T20:59:31.992Z,21.40
2023-12-05T21:02:00.951Z,24.95
2023-12-05T21:04:28.111Z,22.73
2023-12-05T21:06:55.504Z,22.38
2023-12-05T21:09:22.815Z,22.15
2023-12-05T21:11:50.742Z,22.48
2023-12-05T21:14:20.419Z,22.90
2023-12-05T21:16:48.303Z,21.42
2023-12-05T21:19:15.511Z,23.33
2023-12-05T21:21:45.618Z,22.85
2023-12-05T21:24:13.551Z,23.92
2023-12-05T21:26:44.861Z,22.73
2023-12-05T21:29:12.208Z,26.98
2023-12-05T21:31:42.159Z,22.88
2023-12-05T21:34:12.006Z,22.58
2023-12-05T21:36:39.363Z,25.10
2023-12-05T21:39:06.540Z,24.63
2023-12-05T21:41:36.447Z,24.70
2023-12-05T21:44:04.283Z,24.08
2023-12-05T21:46:32.698Z,27.85
2023-12-05T21:49:00.958Z,26.15
2023-12-05T21:51:29.751Z,30.95
2023-12-05T21:53:59.524Z,25.20
2023-12-05T21:56:28.388Z,25.33
2023-12-05T21:58:57.112Z,28.27
2023-12-05T22:01:24.820Z,25.17
2023-12-05T22:03:52.170Z,21.27
2023-12-05T22:06:19.321Z,24.95
2023-12-05T22:08:46.615Z,25.80
2023-12-05T22:11:13.865Z,27.77
2023-12-05T22:13:44.600Z,26.05
2023-12-05T22:16:13.042Z,23.40
2023-12-05T22:18:40.815Z,25.55
2023-12-05T22:21:08.262Z,22.83
2023-12-05T22:23:41.484Z,20.85
2023-12-05T22:26:09.868Z,27.05
2023-12-05T22:28:37.338Z,24.40
2023-12-05T22:31:07.908Z,24.08
2023-12-05T22:33:35.493Z,24.33
2023-12-05T22:36:03.500Z,23.38
2023-12-05T22:38:30.627Z,24.73
2023-12-05T22:41:02.854Z,22.83
2023-12-05T22:43:32.037Z,23.52
2023-12-05T22:46:10.227Z,22.95
2023-12-05T22:48:39.097Z,24.13
2023-12-05T22:51:10.973Z,21.73
2023-12-05T22:56:11.304Z,24.13
2023-12-05T22:58:38.515Z,26.33
2023-12-05T23:01:05.979Z,27.73
2023-12-05T23:03:34.476Z,27.00
2023-12-05T23:06:02.654Z,20.85
2023-12-05T23:08:30.122Z,22.67
2023-12-05T23:11:03.502Z,24.52
2023-12-05T23:13:31.011Z,29.92
2023-12-05T23:16:02.945Z,24.83
2023-12-05T23:18:30.209Z,29.75
2023-12-05T23:21:02.691Z,30.25
2023-12-05T23:23:30.352Z,28.98
2023-12-05T23:26:02.814Z,28.80
2023-12-05T23:28:30.489Z,30.85
2023-12-05T23:31:04.882Z,31.48
2023-12-05T23:33:32.718Z,27.83
2023-12-05T23:36:03.595Z,31.55
2023-12-05T23:38:30.674Z,31.27
2023-12-05T23:41:03.708Z,28.63
2023-12-05T23:43:32.936Z,30.30
2023-12-05T23:46:03.090Z,31.98
2023-12-05T23:48:30.808Z,30.15
2023-12-05T23:51:02.956Z,28.38
2023-12-05T23:53:30.125Z,26.75
2023-12-05T23:56:02.636Z,28.83
2023-12-05T23:58:32.485Z,29.25
